Time;durP1;ratioP1;P1;durP2;ratioP2;P2;SDS_P1;SDS_P2;PMS_P1;PMS_P2;Temp;Humidity;BMP_temperature;BMP_pressure;BME280_temperature;BME280_humidity;BME280_pressure;Samples;Min_cycle;Max_cycle;Signal;HPM_P1;HPM_P2
2022/08/06 00:00:58;;;;;;;2.22;0.65;;;;;;;17.28;46.88;101501.22;4993501;28;20046;-68
2022/08/06 00:03:25;;;;;;;5.88;0.90;;;;;;;17.26;47.20;101505.97;4994092;28;20053;-68
2022/08/06 00:05:52;;;;;;;4.28;0.80;;;;;;;17.23;47.03;101514.47;4984300;28;20054;-68
2022/08/06 00:08:19;;;;;;;1.05;0.60;;;;;;;17.20;47.23;101521.13;4993015;28;20042;-68
2022/08/06 00:10:48;;;;;;;3.00;0.50;;;;;;;17.26;46.92;101522.25;4993462;28;20486;-68
2022/08/06 00:13:15;;;;;;;2.72;0.63;;;;;;;17.19;47.06;101540.28;4993454;28;20062;-68
2022/08/06 00:15:42;;;;;;;3.65;0.60;;;;;;;17.12;46.99;101541.00;4993465;28;20070;-68
2022/08/06 00:18:28;;;;;;;4.68;0.80;;;;;;;17.23;47.37;101550.56;4992431;28;20058;-68
2022/08/06 00:20:55;;;;;;;4.78;0.77;;;;;;;17.28;46.99;101555.47;4994718;28;20066;-68
2022/08/06 00:23:21;;;;;;;2.67;0.70;;;;;;;17.07;47.38;101562.41;4993888;28;20164;-68
2022/08/06 00:25:50;;;;;;;3.97;0.68;;;;;;;17.05;46.84;101564.44;4994512;28;20056;-68
2022/08/06 00:28:23;;;;;;;2.38;0.52;;;;;;;16.97;47.51;101555.56;4994225;28;20062;-69
2022/08/06 00:31:02;;;;;;;3.95;0.85;;;;;;;16.99;47.69;101548.94;4993510;28;20409;-68
2022/08/06 00:33:36;;;;;;;2.35;0.50;;;;;;;17.02;47.27;101551.25;4993778;28;20066;-68
2022/08/06 00:36:26;;;;;;;3.25;0.50;;;;;;;16.95;47.06;101550.31;4993504;28;20050;-68
2022/08/06 00:38:57;;;;;;;3.83;0.60;;;;;;;16.91;47.37;101543.56;4990848;28;20043;-68
2022/08/06 00:41:27;;;;;;;3.08;0.60;;;;;;;16.85;47.40;101541.59;4983459;28;20510;-68
2022/08/06 00:44:07;;;;;;;1.38;0.68;;;;;;;16.85;47.20;101544.28;4992024;28;20504;-68
2022/08/06 00:46:36;;;;;;;2.65;0.57;;;;;;;16.83;47.08;101547.19;4989878;28;20528;-68
2022/08/06 00:49:04;;;;;;;2.28;0.50;;;;;;;16.72;47.30;101552.22;4983772;28;20519;-67
2022/08/06 00:51:37;;;;;;;2.15;0.52;;;;;;;16.77;47.34;101550.63;4991909;28;20062;-67
2022/08/06 00:54:17;;;;;;;3.88;1.33;;;;;;;16.69;47.25;101558.81;4993128;28;20050;-67
2022/08/06 00:56:53;;;;;;;1.98;0.40;;;;;;;16.69;47.13;101552.56;4993580;28;20038;-67
2022/08/06 00:59:19;;;;;;;2.97;0.60;;;;;;;16.58;47.14;101565.50;4993328;28;20129;-67
2022/08/06 01:01:46;;;;;;;2.67;0.80;;;;;;;16.48;47.10;101569.44;4992370;28;20093;-68
2022/08/06 01:04:17;;;;;;;1.77;0.63;;;;;;;16.58;47.11;101565.50;4991723;28;20054;-68
2022/08/06 01:07:12;;;;;;;4.28;0.45;;;;;;;16.42;47.32;101570.97;4994384;28;20125;-68
2022/08/06 01:09:41;;;;;;;1.63;0.50;;;;;;;16.43;47.53;101565.38;4993455;28;20038;-68
2022/08/06 01:12:24;;;;;;;1.92;0.70;;;;;;;16.40;47.49;101578.44;4992555;28;20050;-68
2022/08/06 01:15:04;;;;;;;3.45;0.60;;;;;;;16.36;47.58;101568.97;4992031;28;20050;-68
2022/08/06 01:17:57;;;;;;;4.13;0.60;;;;;;;16.33;47.56;101580.16;4993672;28;20081;-67
2022/08/06 01:20:53;;;;;;;2.05;0.98;;;;;;;16.24;47.52;101583.94;4991744;28;20050;-68
2022/08/06 01:24:15;;;;;;;2.50;0.45;;;;;;;16.24;47.94;101589.38;4992363;28;20034;-68
2022/08/06 01:27:17;;;;;;;3.42;0.60;;;;;;;16.21;47.79;101581.59;4990655;28;20058;-68
2022/08/06 01:29:50;;;;;;;3.22;0.52;;;;;;;16.15;47.90;101581.25;4991970;28;20078;-67
2022/08/06 01:32:28;;;;;;;2.97;0.80;;;;;;;16.09;48.46;101576.56;4991615;28;20080;-67
2022/08/06 01:35:01;;;;;;;1.92;0.50;;;;;;;16.11;47.88;101576.38;4992066;28;20069;-67
2022/08/06 01:38:07;;;;;;;5.57;0.73;;;;;;;16.03;48.36;101573.72;4991792;28;20125;-67
2022/08/06 01:40:37;;;;;;;1.10;0.47;;;;;;;16.07;48.26;101584.03;4991296;28;20046;-67
2022/08/06 01:43:09;;;;;;;2.35;0.57;;;;;;;16.00;48.33;101580.31;4992028;28;20074;-67
2022/08/06 01:45:51;;;;;;;0.95;0.40;;;;;;;15.93;48.42;101572.06;4991718;28;20391;-67
2022/08/06 01:48:25;;;;;;;3.47;0.85;;;;;;;15.93;48.70;101588.31;4991602;28;20050;-67
2022/08/06 01:50:58;;;;;;;3.78;0.50;;;;;;;15.89;48.65;101583.41;4991430;28;20050;-67
2022/08/06 01:53:29;;;;;;;5.38;0.85;;;;;;;15.79;49.25;101580.91;4992622;28;20133;-67
2022/08/06 01:56:17;;;;;;;0.75;0.32;;;;;;;15.75;49.15;101573.31;4992294;28;20050;-67
2022/08/06 01:58:57;;;;;;;1.90;0.50;;;;;;;15.68;49.24;101579.41;4991293;28;20088;-67
2022/08/06 02:01:26;;;;;;;1.40;0.40;;;;;;;15.70;49.82;101580.06;4991042;28;20405;-67
2022/08/06 02:04:15;;;;;;;3.60;0.52;;;;;;;15.74;49.81;101583.28;4990939;28;20052;-68
2022/08/06 02:06:47;;;;;;;1.95;0.90;;;;;;;15.69;49.68;101585.66;4991489;28;20042;-67
2022/08/06 02:09:19;;;;;;;2.72;0.43;;;;;;;15.65;49.70;101593.28;4991576;28;20058;-67
2022/08/06 02:11:58;;;;;;;2.03;0.80;;;;;;;15.64;49.84;101583.50;4992015;28;20069;-68
2022/08/06 02:14:36;;;;;;;6.00;1.48;;;;;;;15.56;50.14;101580.75;4991270;28;20058;-68
2022/08/06 02:17:05;;;;;;;3.22;0.73;;;;;;;15.47;50.25;101576.41;4981638;28;20042;-68
2022/08/06 02:19:45;;;;;;;3.17;0.73;;;;;;;15.44;50.37;101577.56;4991197;28;20402;-68
2022/08/06 02:22:31;;;;;;;1.20;0.43;;;;;;;15.70;51.31;101585.47;4992247;28;20046;-68
2022/08/06 02:25:02;;;;;;;4.60;0.55;;;;;;;15.88;50.15;101595.25;4992077;28;20153;-68
2022/08/06 02:27:51;;;;;;;3.05;0.50;;;;;;;16.11;49.26;101601.59;4991726;28;20466;-68
2022/08/06 02:30:30;;;;;;;4.85;0.68;;;;;;;16.12;49.46;101607.84;4991395;28;20133;-68
2022/08/06 02:33:03;;;;;;;3.42;0.98;;;;;;;16.21;48.64;101595.97;4991117;28;20069;-68
2022/08/06 02:35:37;;;;;;;1.95;0.57;;;;;;;16.16;48.32;101598.38;4990927;28;20065;-68
2022/08/06 02:38:13;;;;;;;1.27;0.50;;;;;;;15.99;48.89;101603.00;4991009;28;20436;-68
2022/08/06 02:40:49;;;;;;;3.92;0.88;;;;;;;15.98;48.80;101617.53;4990868;28;20130;-68
2022/08/06 02:43:22;;;;;;;3.45;0.98;;;;;;;15.84;48.91;101610.13;4991704;28;20058;-67
2022/08/06 02:46:04;;;;;;;1.98;0.60;;;;;;;15.49;49.68;101623.88;4990765;28;20533;-67
2022/08/06 02:48:41;;;;;;;2.53;0.73;;;;;;;15.88;49.64;101619.59;4984232;28;20066;-68
2022/08/06 02:51:17;;;;;;;2.35;0.70;;;;;;;15.75;49.00;101622.03;4990955;28;20078;-68
2022/08/06 02:54:19;;;;;;;1.65;0.60;;;;;;;16.23;48.42;101626.44;4990580;28;20042;-68
2022/08/06 02:56:53;;;;;;;2.70;0.60;;;;;;;15.85;48.33;101631.63;4991199;28;20379;-68
2022/08/06 02:59:26;;;;;;;1.75;0.50;;;;;;;15.75;49.33;101639.09;4990053;28;20054;-67
2022/08/06 03:02:09;;;;;;;3.58;0.85;;;;;;;15.71;48.54;101630.47;4991044;28;20047;-67
2022/08/06 03:04:44;;;;;;;2.00;0.50;;;;;;;15.65;49.40;101646.53;4990881;28;20046;-67
2022/08/06 03:07:25;;;;;;;4.53;0.73;;;;;;;15.46;49.37;101640.44;4990865;28;20058;-67
2022/08/06 03:09:57;;;;;;;1.52;0.52;;;;;;;15.80;49.14;101636.69;4990787;28;20050;-67
2022/08/06 03:12:25;;;;;;;3.50;0.70;;;;;;;15.54;48.85;101655.81;4990819;28;20166;-67
2022/08/06 03:14:59;;;;;;;1.58;0.40;;;;;;;15.59;49.36;101650.72;4990511;28;20089;-67
2022/08/06 03:17:37;;;;;;;1.63;0.52;;;;;;;15.37;49.56;101651.44;4994764;28;20054;-67
2022/08/06 03:20:05;;;;;;;3.03;0.80;;;;;;;15.46;49.68;101650.41;4994861;28;20074;-67
2022/08/06 03:22:43;;;;;;;1.60;0.60;;;;;;;15.29;49.67;101656.81;4994856;28;20066;-67
2022/08/06 03:25:13;;;;;;;3.80;0.50;;;;;;;15.39;50.33;101663.75;4994213;28;20081;-66
2022/08/06 03:27:41;;;;;;;2.20;0.80;;;;;;;15.71;49.68;101681.88;4994457;28;20126;-67
2022/08/06 03:30:12;;;;;;;1.50;0.57;;;;;;;15.92;48.11;101675.09;4994169;28;20070;-66
2022/08/06 03:33:10;;;;;;;2.05;0.73;;;;;;;15.46;49.19;101677.44;4994111;28;20445;-68
2022/08/06 03:36:00;;;;;;;1.70;0.50;;;;;;;15.35;49.53;101684.03;4993938;28;20100;-67
2022/08/06 03:38:34;;;;;;;1.92;0.63;;;;;;;15.25;49.69;101686.06;4993870;28;20093;-67
2022/08/06 03:41:02;;;;;;;2.92;0.88;;;;;;;15.17;49.86;101689.59;4994159;28;20050;-67
2022/08/06 03:43:33;;;;;;;1.77;0.68;;;;;;;15.07;50.40;101696.19;4994094;28;20569;-67
2022/08/06 03:46:34;;;;;;;2.63;0.80;;;;;;;14.97;50.42;101701.72;4994038;28;20065;-67
2022/08/06 03:49:04;;;;;;;2.13;0.70;;;;;;;14.87;50.80;101717.22;4993778;28;20129;-68
2022/08/06 03:51:35;;;;;;;5.07;0.85;;;;;;;14.77;51.52;101712.84;4986890;28;20494;-67
2022/08/06 03:54:26;;;;;;;4.95;1.15;;;;;;;15.03;50.76;101713.75;4988534;28;20134;-68
2022/08/06 03:57:05;;;;;;;4.15;0.85;;;;;;;14.90;50.73;101708.78;4993931;28;20556;-66
2022/08/06 03:59:38;;;;;;;2.17;0.82;;;;;;;14.80;51.08;101724.31;4994090;28;20133;-66
2022/08/06 04:02:26;;;;;;;1.55;0.68;;;;;;;14.75;51.15;101722.94;4993834;28;20054;-67
2022/08/06 04:05:15;;;;;;;3.53;0.80;;;;;;;14.69;51.54;101726.25;4994085;28;20050;-67
2022/08/06 04:07:42;;;;;;;4.07;0.80;;;;;;;14.71;51.54;101732.38;4993492;28;20046;-67
2022/08/06 04:10:23;;;;;;;2.28;0.70;;;;;;;14.76;51.63;101727.31;4992673;28;20533;-67
2022/08/06 04:13:02;;;;;;;2.78;0.70;;;;;;;14.72;51.50;101734.06;4972715;28;20101;-67
2022/08/06 04:15:49;;;;;;;3.72;0.70;;;;;;;14.70;51.46;101732.50;4994538;28;20042;-67
2022/08/06 04:18:22;;;;;;;6.05;1.10;;;;;;;14.63;51.91;101735.00;4993895;28;20050;-67
2022/08/06 04:20:53;;;;;;;4.05;0.82;;;;;;;14.63;51.90;101732.28;4993176;28;20125;-67
2022/08/06 04:23:40;;;;;;;2.97;1.15;;;;;;;14.71;51.71;101737.78;4992391;28;20054;-67
2022/08/06 04:26:13;;;;;;;2.90;0.60;;;;;;;14.69;51.86;101745.16;4983409;28;20162;-67
2022/08/06 04:28:43;;;;;;;5.03;1.00;;;;;;;14.70;51.92;101746.88;4991731;28;20046;-67
2022/08/06 04:31:23;;;;;;;;;;;;;;;14.86;52.06;101756.06;4993209;28;20383;-67
2022/08/06 04:34:11;;;;;;;2.35;0.80;;;;;;;14.89;51.24;101755.75;4993662;28;20350;-67
2022/08/06 04:36:38;;;;;;;2.17;0.65;;;;;;;14.74;51.68;101764.47;4991239;28;20128;-67
2022/08/06 04:39:12;;;;;;;5.35;0.90;;;;;;;14.82;51.55;101762.81;4992961;28;20051;-67
2022/08/06 04:41:41;;;;;;;2.45;0.88;;;;;;;14.67;51.77;101763.41;4992724;28;20058;-67
2022/08/06 04:44:09;;;;;;;4.82;1.10;;;;;;;14.71;51.84;101759.41;4993015;28;20054;-68
2022/08/06 04:46:39;;;;;;;9.55;1.10;;;;;;;14.68;52.01;101775.88;4992811;28;20054;-67
2022/08/06 04:49:06;;;;;;;3.58;0.98;;;;;;;14.65;51.90;101776.22;4983126;28;20123;-67
2022/08/06 04:51:37;;;;;;;2.20;0.90;;;;;;;14.66;51.90;101780.59;4992162;28;20046;-67
2022/08/06 04:54:24;;;;;;;2.45;0.82;;;;;;;14.76;51.78;101792.16;4992821;28;20046;-67
2022/08/06 04:56:55;;;;;;;6.85;1.42;;;;;;;14.84;51.76;101785.94;4993569;28;20046;-67
2022/08/06 04:59:24;;;;;;;5.50;1.00;;;;;;;14.84;51.48;101799.44;4993052;28;20051;-67
2022/08/06 05:01:58;;;;;;;7.32;0.90;;;;;;;14.75;51.67;101797.72;4992939;28;20481;-67
2022/08/06 05:04:29;;;;;;;5.40;0.80;;;;;;;14.71;51.81;101802.59;4992025;28;20046;-67
2022/08/06 05:07:20;;;;;;;6.55;0.90;;;;;;;14.68;52.08;101800.19;4992397;28;20066;-67
2022/08/06 05:09:48;;;;;;;3.58;1.08;;;;;;;14.69;52.13;101807.28;4993379;28;20068;-67
2022/08/06 05:12:28;;;;;;;2.03;0.77;;;;;;;14.72;51.56;101814.25;4992778;28;20133;-67
2022/08/06 05:15:02;;;;;;;4.47;0.90;;;;;;;14.71;51.86;101809.84;4990838;28;20393;-67
2022/08/06 05:17:33;;;;;;;3.90;0.98;;;;;;;14.63;52.01;101816.03;4991763;28;20069;-67
2022/08/06 05:20:20;;;;;;;3.55;1.20;;;;;;;14.67;51.97;101822.81;4991805;28;20129;-67
2022/08/06 05:23:00;;;;;;;5.07;1.00;;;;;;;14.64;52.12;101833.94;4984376;28;20046;-67
2022/08/06 05:25:31;;;;;;;5.95;1.20;;;;;;;14.69;52.03;101836.16;4991994;28;20078;-67
2022/08/06 05:28:03;;;;;;;1.52;0.70;;;;;;;14.63;52.15;101836.78;4993059;28;20046;-68
2022/08/06 05:30:42;;;;;;;10.32;1.98;;;;;;;14.60;52.02;101842.50;4991450;28;20057;-67
2022/08/06 05:33:11;;;;;;;8.13;1.95;;;;;;;14.54;52.34;101844.00;4990762;28;20081;-67
2022/08/06 05:35:42;;;;;;;7.88;2.00;;;;;;;14.56;52.26;101844.69;4991728;28;20128;-67
2022/08/06 05:38:29;;;;;;;6.85;0.95;;;;;;;14.54;52.53;101846.72;4990719;28;20441;-67
2022/08/06 05:41:01;;;;;;;7.50;1.10;;;;;;;14.55;52.28;101843.00;4991909;28;20050;-67
2022/08/06 05:43:29;;;;;;;6.20;1.30;;;;;;;14.49;52.51;101847.16;4992199;28;20560;-68
2022/08/06 05:46:18;;;;;;;5.35;1.30;;;;;;;14.55;52.78;101848.38;4991772;28;20050;-67
2022/08/06 05:49:07;;;;;;;2.88;1.08;;;;;;;14.53;52.89;101853.09;4992277;28;20046;-67
2022/08/06 05:52:00;;;;;;;6.18;1.10;;;;;;;14.74;52.56;101856.31;4991658;28;20052;-67
2022/08/06 05:54:34;;;;;;;3.70;0.88;;;;;;;14.80;52.41;101859.38;4989977;28;20042;-67
2022/08/06 05:57:10;;;;;;;6.78;1.10;;;;;;;14.91;53.66;101856.38;4991235;28;20050;-67
2022/08/06 06:00:14;;;;;;;4.40;1.08;;;;;;;15.68;51.52;101854.50;4991249;28;20049;-67
2022/08/06 06:03:04;;;;;;;25.95;1.80;;;;;;;16.27;49.42;101865.19;4986231;28;20042;-68
2022/08/06 06:05:33;;;;;;;3.50;0.95;;;;;;;16.29;50.87;101868.56;4991717;28;20057;-67
2022/08/06 06:08:19;;;;;;;5.32;0.90;;;;;;;16.04;49.74;101881.25;4990460;28;20475;-67
2022/08/06 06:11:07;;;;;;;6.00;0.70;;;;;;;15.91;51.04;101870.91;4990624;28;20050;-68
2022/08/06 06:13:38;;;;;;;4.78;0.93;;;;;;;15.62;51.55;101869.50;4991335;28;20124;-67
2022/08/06 06:16:35;;;;;;;7.53;1.35;;;;;;;15.65;51.80;101876.47;4991476;28;20486;-67
2022/08/06 06:19:24;;;;;;;6.07;0.95;;;;;;;16.02;50.69;101878.75;4992261;28;20034;-66
2022/08/06 06:22:10;;;;;;;7.10;1.08;;;;;;;16.33;48.45;101888.88;4986919;28;20409;-67
2022/08/06 06:24:53;;;;;;;4.65;0.65;;;;;;;16.42;47.82;101887.84;4991744;28;20541;-66
2022/08/06 06:27:29;;;;;;;6.65;1.00;;;;;;;16.48;47.13;101891.75;4990726;28;20136;-66
2022/08/06 06:30:15;;;;;;;4.70;0.50;;;;;;;16.66;46.65;101893.28;4991408;28;20042;-66
2022/08/06 06:33:17;;;;;;;3.60;0.68;;;;;;;16.65;46.57;101888.88;4990786;28;20048;-66
2022/08/06 06:36:15;;;;;;;7.00;0.90;;;;;;;16.72;46.25;101897.16;4976522;28;20050;-66
2022/08/06 06:39:27;;;;;;;9.20;1.17;;;;;;;16.63;46.73;101890.06;4990737;28;20501;-66
2022/08/06 06:42:09;;;;;;;4.00;0.85;;;;;;;16.64;46.67;101908.00;4949373;28;20042;-67
2022/08/06 06:45:14;;;;;;;4.45;0.88;;;;;;;16.90;45.69;101896.97;4991539;28;20046;-66
2022/08/06 06:48:18;;;;;;;5.13;0.73;;;;;;;16.88;45.58;101909.81;4990470;28;20052;-65
2022/08/06 06:50:49;;;;;;;2.17;0.60;;;;;;;17.07;44.78;101904.03;4993089;28;20042;-66
2022/08/06 06:53:17;;;;;;;2.47;0.98;;;;;;;17.18;44.50;101910.09;4994821;28;20397;-68
2022/08/06 06:55:47;;;;;;;3.92;0.73;;;;;;;17.07;44.63;101912.16;4995230;28;20078;-66
2022/08/06 06:58:37;;;;;;;3.78;0.50;;;;;;;17.13;44.72;101910.63;4994766;28;20434;-67
2022/08/06 07:01:11;;;;;;;3.92;0.65;;;;;;;17.32;43.87;101912.06;4979225;28;20042;-66
2022/08/06 07:03:56;;;;;;;1.83;0.52;;;;;;;17.40;44.00;101913.94;4994740;28;20046;-67
2022/08/06 07:06:23;;;;;;;2.80;0.60;;;;;;;17.70;43.01;101920.41;4994778;28;20137;-67
2022/08/06 07:09:00;;;;;;;10.85;5.88;;;;;;;17.99;42.16;101916.97;4995544;28;20046;-67
2022/08/06 07:11:43;;;;;;;2.90;0.70;;;;;;;18.15;41.81;101926.91;4995572;28;20043;-67
2022/08/06 07:14:31;;;;;;;4.68;2.35;;;;;;;18.52;41.09;101923.41;4996666;28;20386;-67
2022/08/06 07:17:01;;;;;;;6.47;0.90;;;;;;;18.54;40.96;101926.75;4995555;28;20069;-67
2022/08/06 07:19:50;;;;;;;2.90;0.60;;;;;;;18.40;40.96;101925.69;4994252;28;20049;-67
2022/08/06 07:22:22;;;;;;;3.30;0.70;;;;;;;18.92;39.67;101934.88;4994524;28;20054;-67
2022/08/06 07:24:56;;;;;;;1.42;0.73;;;;;;;18.98;39.73;101926.84;4994545;28;20046;-67
2022/08/06 07:27:26;;;;;;;1.60;0.70;;;;;;;18.75;40.27;101936.91;4994997;28;20085;-67
2022/08/06 07:30:13;;;;;;;2.58;0.60;;;;;;;19.34;38.85;101947.84;4992762;28;20097;-67
2022/08/06 07:32:42;;;;;;;6.28;0.50;;;;;;;19.53;38.58;101941.00;4994455;28;20066;-67
2022/08/06 07:35:17;;;;;;;3.58;0.65;;;;;;;19.62;38.25;101948.03;4993319;28;20046;-67
2022/08/06 07:37:56;;;;;;;2.90;0.65;;;;;;;19.84;38.23;101946.22;4994495;28;20049;-67
2022/08/06 07:40:35;;;;;;;2.05;0.65;;;;;;;19.84;38.15;101950.84;4994928;28;20093;-66
2022/08/06 07:43:15;;;;;;;2.47;0.70;;;;;;;19.59;38.37;101958.44;4994840;28;20502;-66
2022/08/06 07:45:52;;;;;;;3.67;0.80;;;;;;;19.79;37.85;101953.28;4994805;28;20038;-67
2022/08/06 07:48:39;;;;;;;5.43;0.77;;;;;;;20.28;37.41;101947.94;4994504;28;20491;-67
2022/08/06 07:51:22;;;;;;;5.00;0.63;;;;;;;20.29;37.22;101946.91;4994377;28;20506;-67
2022/08/06 07:54:03;;;;;;;3.22;0.68;;;;;;;20.38;37.09;101958.50;4987876;28;20491;-67
2022/08/06 07:56:38;;;;;;;2.20;0.68;;;;;;;19.83;37.81;101954.56;4994281;28;20466;-67
2022/08/06 07:59:05;;;;;;;5.88;0.80;;;;;;;20.03;37.47;101962.97;4991906;28;20046;-67
2022/08/06 08:01:38;;;;;;;6.25;0.70;;;;;;;19.68;38.62;101958.19;4989993;28;20050;-66
2022/08/06 08:07:20;;;;;;;10.23;1.08;;;;;;;19.63;38.99;101966.06;4994761;28;20410;-65
2022/08/06 08:09:48;;;;;;;4.07;0.70;;;;;;;19.69;39.03;101965.31;4992429;28;20074;-65
2022/08/06 08:12:28;;;;;;;;;;;;;;;20.04;38.26;101972.81;4995845;28;20035;-64
2022/08/06 08:15:03;;;;;;;12.00;1.60;;;;;;;19.70;37.94;101961.56;4993296;28;19921;-65
2022/08/06 08:17:32;;;;;;;2.05;0.50;;;;;;;20.28;36.54;101966.16;4994011;28;20121;-66
2022/08/06 08:20:06;;;;;;;6.28;0.90;;;;;;;20.95;35.38;101964.88;4994161;28;20505;-66
2022/08/06 08:22:42;;;;;;;4.68;0.80;;;;;;;21.55;34.40;101966.09;4993932;28;20088;-67
2022/08/06 08:25:16;;;;;;;2.33;0.82;;;;;;;21.12;35.77;101963.56;4993155;28;20085;-66
2022/08/06 08:28:04;;;;;;;3.22;0.77;;;;;;;20.23;36.97;101976.81;4993827;28;20051;-65
2022/08/06 08:30:39;;;;;;;1.75;0.65;;;;;;;20.05;36.65;101975.38;4992742;28;20048;-66
2022/08/06 08:33:06;;;;;;;6.80;0.90;;;;;;;19.95;37.04;101970.22;4994387;28;20409;-66
2022/08/06 08:35:37;;;;;;;4.03;0.60;;;;;;;19.94;36.94;101970.44;4994181;28;20042;-65
2022/08/06 08:38:04;;;;;;;3.42;0.95;;;;;;;20.50;35.78;101977.94;4994049;28;20074;-65
2022/08/06 08:40:36;;;;;;;4.07;0.50;;;;;;;20.99;34.92;101969.75;4993911;28;20466;-65
2022/08/06 08:43:07;;;;;;;3.58;0.70;;;;;;;21.29;34.24;101973.13;4993278;28;20042;-66
2022/08/06 08:45:43;;;;;;;46.67;3.17;;;;;;;21.17;34.13;101973.88;4993830;28;20053;-68
2022/08/06 08:48:20;;;;;;;2.67;0.82;;;;;;;20.98;33.79;101975.41;4994503;28;20054;-66
2022/08/06 08:50:48;;;;;;;5.30;1.73;;;;;;;20.62;34.95;101973.63;4994916;28;20049;-66
2022/08/06 08:53:28;;;;;;;2.72;0.68;;;;;;;20.65;35.03;101975.97;4993275;28;20046;-66
2022/08/06 08:56:12;;;;;;;0.47;0.40;;;;;;;20.62;35.22;101976.38;4992643;28;20387;-66
2022/08/06 08:59:00;;;;;;;2.97;0.70;;;;;;;20.99;34.46;101969.75;4992997;28;20053;-65
2022/08/06 09:01:47;;;;;;;2.63;0.90;;;;;;;21.37;33.91;101972.94;4992714;28;20052;-66
2022/08/06 09:04:23;;;;;;;5.40;0.60;;;;;;;21.21;33.43;101975.97;4992338;28;20103;-66
2022/08/06 09:06:54;;;;;;;4.63;0.90;;;;;;;21.54;32.81;101983.53;4992426;28;20126;-65
2022/08/06 09:09:21;;;;;;;1.40;0.60;;;;;;;22.07;31.49;101978.28;4992709;28;20097;-66
2022/08/06 09:11:57;;;;;;;1.40;0.50;;;;;;;21.41;32.85;101976.09;4992307;28;20043;-66
2022/08/06 09:14:45;;;;;;;1.67;0.68;;;;;;;20.95;33.24;101975.81;4992082;28;20490;-66
2022/08/06 09:17:13;;;;;;;2.10;0.50;;;;;;;20.29;33.68;101987.78;4992258;28;20049;-65
2022/08/06 09:19:44;;;;;;;2.30;0.60;;;;;;;21.46;32.00;101978.22;4992518;28;20475;-65
2022/08/06 09:22:11;;;;;;;8.60;0.90;;;;;;;21.71;31.86;101981.28;4992374;28;20474;-66
2022/08/06 09:24:39;;;;;;;7.35;0.77;;;;;;;21.98;31.10;101976.78;4990777;28;20463;-65
2022/08/06 09:27:09;;;;;;;3.03;0.40;;;;;;;21.44;31.81;101970.25;4991223;28;20077;-66
2022/08/06 09:29:58;;;;;;;6.00;0.50;;;;;;;21.61;31.03;101977.03;4992431;28;20455;-65
2022/08/06 09:32:44;;;;;;;3.10;0.70;;;;;;;21.73;30.84;101979.19;4992668;28;20077;-66
2022/08/06 09:35:28;;;;;;;2.47;0.60;;;;;;;21.70;30.59;101983.19;4991650;28;20050;-65
2022/08/06 09:38:11;;;;;;;3.70;0.52;;;;;;;20.58;32.67;101985.97;4991791;28;20046;-65
2022/08/06 09:41:11;;;;;;;3.10;0.43;;;;;;;20.77;31.98;101989.94;4985281;28;20046;-65
2022/08/06 09:43:43;;;;;;;3.90;0.70;;;;;;;20.67;32.46;101993.00;4991929;28;20038;-67
2022/08/06 09:46:42;;;;;;;3.15;0.57;;;;;;;20.42;32.87;101987.13;4993161;28;20121;-66
2022/08/06 09:49:15;;;;;;;3.35;0.50;;;;;;;20.06;32.99;101987.09;4992077;28;20046;-65
2022/08/06 09:52:16;;;;;;;1.20;0.50;;;;;;;20.73;32.51;101994.94;4989730;28;20056;-66
2022/08/06 09:54:48;;;;;;;2.65;0.70;;;;;;;22.11;29.07;101986.91;4992038;28;20054;-66
2022/08/06 09:57:20;;;;;;;4.07;0.60;;;;;;;22.61;29.17;101988.28;4992421;28;20046;-67
2022/08/06 09:59:49;;;;;;;3.17;1.17;;;;;;;22.87;28.61;101987.41;4991868;28;20046;-66
2022/08/06 10:02:19;;;;;;;1.85;0.50;;;;;;;22.15;29.76;101980.84;4992165;28;20043;-67
2022/08/06 10:05:09;;;;;;;1.40;0.45;;;;;;;22.01;30.10;101981.84;4991929;28;20054;-67
2022/08/06 10:08:11;;;;;;;3.03;0.88;;;;;;;22.06;29.99;101979.34;4992484;28;20141;-66
2022/08/06 10:10:50;;;;;;;3.95;0.52;;;;;;;21.04;31.38;101986.38;4991665;28;20125;-67
2022/08/06 10:13:25;;;;;;;6.32;0.88;;;;;;;21.41;30.52;101986.19;4991385;28;20050;-67
2022/08/06 10:15:59;;;;;;;1.75;0.40;;;;;;;22.21;29.05;101987.34;4991827;28;20069;-65
2022/08/06 10:18:46;;;;;;;1.40;0.40;;;;;;;23.59;26.22;101991.09;4991843;28;20046;-65
2022/08/06 10:21:29;;;;;;;3.30;0.73;;;;;;;24.03;26.19;101996.84;4992826;28;20050;-65
2022/08/06 10:24:08;;;;;;;1.13;0.30;;;;;;;22.08;28.48;101982.69;4992314;28;20121;-66
2022/08/06 10:26:35;;;;;;;2.38;0.50;;;;;;;22.36;27.99;101984.44;4992790;28;20065;-66
2022/08/06 10:29:05;;;;;;;2.72;0.45;;;;;;;21.85;28.12;101983.06;4993476;28;20046;-65
2022/08/06 10:31:34;;;;;;;1.77;0.30;;;;;;;22.23;27.71;101988.84;4993027;28;20058;-66
2022/08/06 10:34:13;;;;;;;1.00;0.50;;;;;;;22.95;26.58;101989.13;4992954;28;20050;-66
2022/08/06 10:36:54;;;;;;;0.55;0.30;;;;;;;22.61;27.27;101988.28;4992208;28;20049;-66
2022/08/06 10:39:32;;;;;;;1.00;0.60;;;;;;;23.79;25.59;101990.22;4993305;28;20050;-66
2022/08/06 10:42:20;;;;;;;4.07;0.40;;;;;;;25.03;23.26;101981.34;4991542;28;20060;-66
2022/08/06 10:44:50;;;;;;;4.22;0.68;;;;;;;23.65;25.61;101984.75;4991279;28;20101;-65
2022/08/06 10:47:20;;;;;;;;;;;;;;;22.74;26.77;101990.16;4987461;28;20054;-65
2022/08/06 10:50:09;;;;;;;0.80;0.30;;;;;;;22.62;26.45;101986.38;4990762;28;19928;-66
2022/08/06 10:52:57;;;;;;;0.90;0.30;;;;;;;23.12;25.60;101984.91;4990339;28;20058;-66
2022/08/06 10:55:28;;;;;;;0.20;0.20;;;;;;;21.40;28.77;101979.06;4991195;28;20058;-66
2022/08/06 10:58:11;;;;;;;9.18;0.73;;;;;;;21.53;29.00;101992.78;4990050;28;20050;-71
2022/08/06 11:00:40;;;;;;;2.47;0.50;;;;;;;21.45;28.91;101982.00;4991528;28;20046;-66
2022/08/06 11:04:01;;;;;;;2.20;0.75;;;;;;;22.13;28.09;101985.66;4986248;28;20417;-66
2022/08/06 11:06:58;;;;;;;0.52;0.30;;;;;;;21.84;28.19;101975.91;4990403;28;20081;-67
2022/08/06 11:09:35;;;;;;;3.60;0.47;;;;;;;23.13;25.64;101975.66;4989913;28;20134;-65
2022/08/06 11:12:46;;;;;;;2.97;0.50;;;;;;;22.31;27.86;101974.97;4990964;28;20056;-67
2022/08/06 11:15:18;;;;;;;6.43;0.70;;;;;;;22.66;27.69;101968.50;4990597;28;20046;-68
2022/08/06 11:17:51;;;;;;;5.75;0.82;;;;;;;21.73;28.72;101974.56;4980264;28;20043;-67
2022/08/06 11:20:33;;;;;;;3.10;0.50;;;;;;;21.41;29.40;101970.66;4990261;28;20510;-68
2022/08/06 11:23:20;;;;;;;1.65;0.73;;;;;;;21.83;28.57;101969.59;4991688;28;20047;-68
2022/08/06 11:26:07;;;;;;;4.43;0.60;;;;;;;21.41;28.65;101980.72;4990556;28;20466;-71
2022/08/06 11:28:34;;;;;;;3.15;0.55;;;;;;;22.22;27.33;101965.28;4991148;28;20081;-68
2022/08/06 11:31:03;;;;;;;3.95;0.68;;;;;;;22.15;27.48;101961.72;4984496;28;20125;-68
2022/08/06 11:33:32;;;;;;;6.70;0.60;;;;;;;22.60;26.79;101967.44;4991418;28;20168;-67
2022/08/06 11:36:02;;;;;;;3.33;0.50;;;;;;;23.36;25.26;101953.22;4990960;28;20125;-67
2022/08/06 11:38:47;;;;;;;3.67;0.65;;;;;;;22.97;25.79;101955.00;4994665;28;20146;-67
2022/08/06 11:41:30;;;;;;;1.00;0.55;;;;;;;23.64;25.35;101960.28;4994348;28;20066;-68
2022/08/06 11:44:18;;;;;;;2.95;0.60;;;;;;;23.64;25.44;101957.56;4993623;28;20064;-69
2022/08/06 11:47:06;;;;;;;1.77;0.40;;;;;;;22.74;26.64;101950.00;4994960;28;20482;-68
2022/08/06 11:49:43;;;;;;;4.80;0.57;;;;;;;21.82;27.85;101954.25;4995037;28;20049;-68
2022/08/06 11:52:30;;;;;;;1.42;0.50;;;;;;;21.33;28.30;101966.19;4994261;28;20097;-68
2022/08/06 11:55:07;;;;;;;4.10;0.50;;;;;;;20.96;28.93;101964.66;4994251;28;20050;-71
2022/08/06 11:57:40;;;;;;;3.15;0.80;;;;;;;21.42;28.10;101955.09;4993803;28;20070;-69
2022/08/06 12:00:18;;;;;;;5.53;0.55;;;;;;;21.40;28.22;101957.22;4978334;28;20046;-68
2022/08/06 12:02:50;;;;;;;2.25;0.90;;;;;;;21.08;28.56;101960.38;4993837;28;20105;-68
2022/08/06 12:05:21;;;;;;;9.18;0.40;;;;;;;21.07;28.80;101958.66;4993662;28;20066;-68
2022/08/06 12:08:14;;;;;;;1.70;0.50;;;;;;;21.05;28.10;101966.22;4994030;28;20066;-68
2022/08/06 12:11:33;;;;;;;1.92;0.30;;;;;;;21.21;28.13;101965.06;4993343;28;20074;-68
2022/08/06 12:14:03;;;;;;;11.07;0.88;;;;;;;21.15;28.30;101971.34;4993739;28;20050;-67
2022/08/06 12:16:50;;;;;;;2.58;0.50;;;;;;;21.08;28.23;101954.91;4993549;28;20394;-68
2022/08/06 12:19:20;;;;;;;1.63;0.40;;;;;;;21.16;27.83;101953.94;4993564;28;20101;-67
2022/08/06 12:21:53;;;;;;;3.92;0.50;;;;;;;20.92;27.50;101950.59;4993234;28;20068;-67